createdAt,value
2019-05-23T00:01:55.756Z,34.60
2019-05-23T00:05:27.007Z,34.60
2019-05-23T00:08:41.298Z,34.60
2019-05-23T00:11:45.074Z,34.60
2019-05-23T00:14:47.361Z,34.60
2019-05-23T00:17:43.976Z,34.60
2019-05-23T00:20:40.570Z,34.60
2019-05-23T00:23:36.352Z,34.60
2019-05-23T00:26:31.631Z,34.60
2019-05-23T00:29:30.455Z,34.50
2019-05-23T00:32:40.015Z,34.50
2019-05-23T00:35:36.603Z,34.50
2019-05-23T00:38:32.667Z,34.60
2019-05-23T00:41:28.935Z,34.50
2019-05-23T00:44:25.264Z,34.60
2019-05-23T00:47:22.101Z,34.60
2019-05-23T00:50:19.561Z,34.60
2019-05-23T00:53:15.565Z,34.60
2019-05-23T00:56:12.324Z,34.60
2019-05-23T00:59:24.427Z,34.60
2019-05-23T01:02:07.299Z,34.60
2019-05-23T01:05:05.045Z,34.60
2019-05-23T01:08:02.988Z,34.60
2019-05-23T01:10:58.708Z,34.60
2019-05-23T01:13:55.366Z,34.60
2019-05-23T01:16:52.145Z,34.60
2019-05-23T01:19:51.510Z,34.60
2019-05-23T01:22:49.149Z,34.60
2019-05-23T01:25:46.597Z,34.50
2019-05-23T01:28:43.458Z,34.50
2019-05-23T01:31:40.884Z,34.50
2019-05-23T01:34:37.880Z,34.50
2019-05-23T01:37:34.540Z,34.60
2019-05-23T01:40:31.426Z,34.60
2019-05-23T01:43:27.562Z,34.60
2019-05-23T01:46:23.542Z,34.60
2019-05-23T01:49:19.885Z,34.60
2019-05-23T01:52:16.949Z,34.60
2019-05-23T01:55:14.140Z,34.60
2019-05-23T01:58:10.401Z,34.60
2019-05-23T02:01:07.038Z,34.70
2019-05-23T02:04:03.741Z,34.70
2019-05-23T02:07:00.275Z,34.70
2019-05-23T02:09:56.020Z,34.70
2019-05-23T02:12:52.534Z,34.80
2019-05-23T02:15:49.364Z,34.80
2019-05-23T02:18:46.322Z,34.80
2019-05-23T02:21:43.045Z,34.80
2019-05-23T02:24:40.244Z,34.80
2019-05-23T02:27:37.587Z,34.90
2019-05-23T02:30:36.071Z,34.90
2019-05-23T02:33:31.362Z,34.90
2019-05-23T02:36:27.818Z,35.00
2019-05-23T02:39:48.450Z,35.00
2019-05-23T02:42:47.121Z,35.00
2019-05-23T02:45:45.487Z,35.00
2019-05-23T02:48:44.977Z,35.10
2019-05-23T02:51:42.687Z,35.10
2019-05-23T02:54:42.418Z,35.20
2019-05-23T02:57:39.026Z,35.20
2019-05-23T03:00:55.892Z,35.30
2019-05-23T03:03:51.518Z,35.30
2019-05-23T03:06:47.518Z,35.30
2019-05-23T03:09:44.362Z,35.40
2019-05-23T03:12:40.885Z,35.40
2019-05-23T03:15:38.150Z,35.50
2019-05-23T03:18:35.981Z,35.50
2019-05-23T03:21:32.541Z,35.60
2019-05-23T03:24:29.866Z,35.60
2019-05-23T03:27:27.939Z,35.60
2019-05-23T03:30:28.389Z,35.70
2019-05-23T03:33:28.040Z,35.70
2019-05-23T03:36:27.322Z,35.80
2019-05-23T03:39:34.915Z,35.80
2019-05-23T03:42:58.341Z,35.90
2019-05-23T03:46:07.088Z,35.90
2019-05-23T03:49:19.440Z,36.00
2019-05-23T03:52:39.821Z,36.10
2019-05-23T03:55:48.381Z,36.10
2019-05-23T03:58:59.108Z,36.20
2019-05-23T04:02:32.860Z,36.30
2019-05-23T04:05:51.765Z,36.30
2019-05-23T04:08:52.087Z,36.30
2019-05-23T04:11:49.016Z,36.40
2019-05-23T04:14:46.998Z,36.50
2019-05-23T04:17:54.448Z,36.50
2019-05-23T04:20:51.302Z,36.60
2019-05-23T04:23:54.886Z,36.60
2019-05-23T04:26:53.583Z,36.70
2019-05-23T04:29:51.504Z,36.80
2019-05-23T04:32:51.593Z,36.90
2019-05-23T04:36:09.131Z,36.90
2019-05-23T04:39:13.783Z,36.90
2019-05-23T04:42:15.585Z,37.00
2019-05-23T04:45:26.733Z,37.10
2019-05-23T04:48:35.787Z,37.10
2019-05-23T04:51:37.312Z,37.20
2019-05-23T04:54:35.702Z,37.30
2019-05-23T04:57:38.613Z,37.30
2019-05-23T05:00:44.477Z,37.40
2019-05-23T05:03:50.517Z,37.40
2019-05-23T05:06:53.276Z,37.40
2019-05-23T05:10:08.364Z,37.50
2019-05-23T05:21:37.144Z,37.60
2019-05-23T05:25:08.651Z,37.70
2019-05-23T05:28:35.206Z,37.80
2019-05-23T05:35:55.460Z,37.90
2019-05-23T05:39:55.977Z,38.00
2019-05-23T05:43:20.596Z,38.00
2019-05-23T05:50:32.785Z,38.20
2019-05-23T05:54:02.074Z,38.30
2019-05-23T06:04:27.847Z,38.50
2019-05-23T06:14:46.781Z,38.70
2019-05-23T06:17:55.050Z,38.70
2019-05-23T06:20:52.742Z,38.80
2019-05-23T06:23:53.473Z,38.90
2019-05-23T06:27:09.323Z,38.90
2019-05-23T06:30:34.592Z,39.00
2019-05-23T06:33:51.391Z,39.10
2019-05-23T06:37:06.542Z,39.20
2019-05-23T06:40:17.020Z,39.30
2019-05-23T06:43:22.445Z,39.30
2019-05-23T06:46:23.097Z,39.40
2019-05-23T06:49:21.541Z,39.50
2019-05-23T06:52:21.563Z,39.50
2019-05-23T06:55:21.671Z,39.60
2019-05-23T06:58:21.314Z,39.70
2019-05-23T07:01:21.039Z,39.70
2019-05-23T07:04:52.267Z,39.80
2019-05-23T07:08:30.497Z,39.80
2019-05-23T07:11:38.448Z,39.90
2019-05-23T07:15:31.620Z,39.90
2019-05-23T07:24:06.414Z,40.00
2019-05-23T07:27:40.644Z,40.10
2019-05-23T07:34:44.174Z,40.20
2019-05-23T07:42:28.467Z,40.30
2019-05-23T07:46:08.532Z,40.40
2019-05-23T07:49:46.616Z,40.40
2019-05-23T07:53:21.661Z,40.50
2019-05-23T07:56:44.036Z,40.50
2019-05-23T07:59:50.894Z,40.60
2019-05-23T08:03:35.707Z,40.70
2019-05-23T08:06:49.320Z,40.80
2019-05-23T08:17:15.994Z,41.00
2019-05-23T08:20:17.823Z,41.10
2019-05-23T08:23:18.518Z,41.30
2019-05-23T08:26:23.028Z,41.50
2019-05-23T08:29:34.558Z,41.80
2019-05-23T08:36:09.011Z,42.00
2019-05-23T08:39:17.940Z,42.10
2019-05-23T08:42:59.011Z,42.40
2019-05-23T08:46:35.541Z,42.70
2019-05-23T08:50:13.348Z,43.10
2019-05-23T08:53:27.427Z,43.30
2019-05-23T08:56:27.281Z,43.60
2019-05-23T08:59:31.877Z,43.70
2019-05-23T09:02:58.035Z,44.00
2019-05-23T09:06:15.962Z,44.10
2019-05-23T09:12:50.591Z,44.10
2019-05-23T09:16:01.182Z,44.00
2019-05-23T09:19:11.144Z,43.90
2019-05-23T09:22:30.793Z,43.90
2019-05-23T09:26:01.076Z,43.90
2019-05-23T09:30:32.427Z,44.00
2019-05-23T09:33:11.554Z,44.00
2019-05-23T09:43:49.401Z,44.20
2019-05-23T09:47:00.933Z,44.10
2019-05-23T09:50:08.043Z,43.90
2019-05-23T09:53:13.116Z,43.70
2019-05-23T09:56:11.221Z,43.60
2019-05-23T09:59:11.869Z,43.40
2019-05-23T10:02:14.124Z,43.20
2019-05-23T10:05:12.640Z,43.10
2019-05-23T10:08:23.759Z,43.00
2019-05-23T10:11:35.841Z,42.90
2019-05-23T10:14:40.152Z,42.90
2019-05-23T10:17:41.685Z,42.80
2019-05-23T10:20:42.751Z,42.80
2019-05-23T10:23:45.172Z,42.80
2019-05-23T10:26:45.857Z,42.80
2019-05-23T10:30:12.375Z,42.80
2019-05-23T10:33:19.474Z,42.80
2019-05-23T10:39:59.565Z,42.90
2019-05-23T10:43:17.087Z,42.90
2019-05-23T10:46:23.494Z,42.90
2019-05-23T10:49:32.010Z,42.90
2019-05-23T10:52:50.194Z,42.90
2019-05-23T10:56:24.320Z,42.80
2019-05-23T11:03:22.459Z,42.70
2019-05-23T11:06:37.152Z,42.60
2019-05-23T11:10:01.038Z,42.60
2019-05-23T11:13:00.463Z,42.70
2019-05-23T11:16:17.622Z,42.80
2019-05-23T11:19:30.001Z,43.10
2019-05-23T11:22:31.629Z,43.30
2019-05-23T11:25:31.420Z,43.40
2019-05-23T11:28:30.120Z,43.60
2019-05-23T11:31:41.453Z,43.60
2019-05-23T11:34:45.734Z,43.60
2019-05-23T11:37:47.795Z,43.60
2019-05-23T11:40:46.549Z,43.60
2019-05-23T11:43:46.384Z,43.80
2019-05-23T11:46:50.184Z,43.80
2019-05-23T11:49:55.008Z,43.90
2019-05-23T11:52:57.004Z,43.90
2019-05-23T11:56:14.445Z,43.90
2019-05-23T11:59:21.024Z,43.80
2019-05-23T12:02:27.802Z,43.70
2019-05-23T12:05:46.838Z,43.60
2019-05-23T12:08:56.726Z,43.50
2019-05-23T12:12:02.409Z,43.40
2019-05-23T12:15:08.043Z,43.50
2019-05-23T12:18:12.530Z,43.40
2019-05-23T12:21:18.539Z,43.50
2019-05-23T12:24:19.642Z,43.50
2019-05-23T12:27:21.043Z,43.50
2019-05-23T12:30:52.239Z,43.50
2019-05-23T12:33:59.897Z,43.40
2019-05-23T12:37:18.630Z,43.20
2019-05-23T12:40:11.397Z,43.10
2019-05-23T12:43:05.394Z,42.90
2019-05-23T12:46:02.090Z,42.80
2019-05-23T12:49:06.363Z,42.70
2019-05-23T12:52:02.867Z,42.50
2019-05-23T12:55:00.704Z,42.40
2019-05-23T12:58:02.139Z,42.20
2019-05-23T13:01:09.827Z,42.10
2019-05-23T13:04:13.065Z,41.90
2019-05-23T13:07:35.543Z,41.80
2019-05-23T13:10:52.031Z,41.70
2019-05-23T13:18:01.527Z,41.40
2019-05-23T13:21:22.811Z,41.20
2019-05-23T13:24:26.076Z,41.20
2019-05-23T13:28:04.718Z,41.00
2019-05-23T13:30:57.908Z,40.90
2019-05-23T13:33:54.130Z,40.80
2019-05-23T13:36:50.504Z,40.80
2019-05-23T13:39:47.490Z,40.70
2019-05-23T13:42:43.956Z,40.60
2019-05-23T13:45:40.513Z,40.50
2019-05-23T13:48:36.357Z,40.50
2019-05-23T13:51:33.423Z,40.40
2019-05-23T13:54:29.891Z,40.30
2019-05-23T13:57:26.566Z,40.30
2019-05-23T14:00:23.659Z,40.20
2019-05-23T14:03:20.046Z,40.20
2019-05-23T14:06:16.233Z,40.10
2019-05-23T14:09:14.616Z,40.10
2019-05-23T14:12:26.530Z,39.90
2019-05-23T14:15:10.453Z,39.90
2019-05-23T14:18:06.696Z,39.90
2019-05-23T14:21:04.177Z,39.80
2019-05-23T14:24:00.482Z,39.70
2019-05-23T14:27:02.815Z,39.70
2019-05-23T14:30:09.673Z,39.70
2019-05-23T14:32:59.477Z,39.70
2019-05-23T14:35:59.343Z,39.60
2019-05-23T14:39:00.690Z,39.60
2019-05-23T14:42:05.512Z,39.60
2019-05-23T14:45:01.996Z,39.50
2019-05-23T14:48:04.570Z,39.50
2019-05-23T14:51:08.237Z,39.50
2019-05-23T14:54:21.999Z,39.40
2019-05-23T14:57:18.976Z,39.40
2019-05-23T15:00:17.364Z,39.30
2019-05-23T15:03:13.896Z,39.30
2019-05-23T15:06:11.223Z,39.20
2019-05-23T15:09:08.682Z,39.20
2019-05-23T15:12:05.231Z,39.10
2019-05-23T15:15:03.055Z,39.10
2019-05-23T15:18:01.018Z,39.10
2019-05-23T15:20:58.540Z,39.00
2019-05-23T15:23:56.794Z,39.00
2019-05-23T15:26:54.614Z,38.90
2019-05-23T15:29:51.657Z,38.90
2019-05-23T15:32:48.516Z,38.80
2019-05-23T15:35:47.152Z,38.80
2019-05-23T15:38:44.217Z,38.80
2019-05-23T15:41:41.158Z,38.70
2019-05-23T15:44:37.763Z,38.70
2019-05-23T15:47:35.917Z,38.60
2019-05-23T15:50:36.242Z,38.60
2019-05-23T15:53:48.550Z,38.60
2019-05-23T15:56:53.796Z,38.50
2019-05-23T15:59:53.495Z,38.50
2019-05-23T16:02:57.318Z,38.50
2019-05-23T16:05:56.087Z,38.40
2019-05-23T16:08:55.487Z,38.40
2019-05-23T16:11:52.284Z,38.30
2019-05-23T16:14:49.190Z,38.30
2019-05-23T16:17:45.236Z,38.30
2019-05-23T16:20:45.479Z,38.30
2019-05-23T16:23:42.833Z,38.30
2019-05-23T16:26:39.797Z,38.20
2019-05-23T16:29:37.199Z,38.20
2019-05-23T16:32:33.255Z,38.20
2019-05-23T16:35:30.659Z,38.20
2019-05-23T16:38:30.828Z,38.10
2019-05-23T16:41:26.843Z,38.10
2019-05-23T16:44:23.796Z,38.00
2019-05-23T16:47:21.951Z,38.00
2019-05-23T16:50:18.526Z,38.00
2019-05-23T16:53:14.512Z,38.00
2019-05-23T16:56:19.863Z,37.90
2019-05-23T16:59:24.625Z,37.90
2019-05-23T17:02:44.673Z,37.90
2019-05-23T17:05:59.357Z,37.80
2019-05-23T17:09:13.471Z,37.80
2019-05-23T17:12:26.560Z,37.80
2019-05-23T17:15:40.408Z,37.80
2019-05-23T17:18:54.544Z,37.80
2019-05-23T17:22:13.760Z,37.70
2019-05-23T17:25:23.187Z,37.70
2019-05-23T17:28:40.320Z,37.70
2019-05-23T17:31:39.376Z,37.60
2019-05-23T17:34:35.740Z,37.60
2019-05-23T17:37:32.001Z,37.60
2019-05-23T17:40:29.329Z,37.50
2019-05-23T17:43:25.900Z,37.50
2019-05-23T17:46:22.030Z,37.50
2019-05-23T17:49:19.635Z,37.50
2019-05-23T17:52:16.008Z,37.40
2019-05-23T17:55:12.534Z,37.40
2019-05-23T17:58:09.124Z,37.40
2019-05-23T18:01:06.220Z,37.30
2019-05-23T18:04:03.038Z,37.30
2019-05-23T18:07:00.436Z,37.30
2019-05-23T18:09:56.885Z,37.30
2019-05-23T18:12:53.140Z,37.20
2019-05-23T18:15:50.021Z,37.20
2019-05-23T18:18:47.804Z,37.20
2019-05-23T18:21:45.293Z,37.20
2019-05-23T18:24:43.337Z,37.20
2019-05-23T18:27:40.853Z,37.10
2019-05-23T18:30:46.590Z,37.10
2019-05-23T18:33:44.903Z,37.10
2019-05-23T18:36:44.284Z,37.10
2019-05-23T18:39:41.808Z,37.00
2019-05-23T18:42:43.731Z,37.00
2019-05-23T18:45:41.430Z,37.00
2019-05-23T18:48:39.632Z,37.00
2019-05-23T18:51:37.634Z,36.90
2019-05-23T18:54:34.595Z,36.90
2019-05-23T18:57:34.197Z,36.90
2019-05-23T19:01:22.748Z,36.90
2019-05-23T19:04:19.244Z,36.90
2019-05-23T19:07:16.933Z,36.80
2019-05-23T19:10:14.328Z,36.80
2019-05-23T19:13:11.112Z,36.80
2019-05-23T19:16:09.260Z,36.70
2019-05-23T19:19:07.438Z,36.70
2019-05-23T19:22:05.243Z,36.70
2019-05-23T19:25:01.686Z,36.70
2019-05-23T19:27:59.797Z,36.70
2019-05-23T19:30:56.517Z,36.70
2019-05-23T19:33:53.427Z,36.70
2019-05-23T19:36:49.737Z,36.60
2019-05-23T19:39:50.112Z,36.60
2019-05-23T19:42:45.769Z,36.60
2019-05-23T19:45:42.886Z,36.60
2019-05-23T19:48:41.036Z,36.50
2019-05-23T19:51:39.200Z,36.50
2019-05-23T19:54:36.675Z,36.60
2019-05-23T19:57:33.193Z,36.50
2019-05-23T20:00:29.878Z,36.50
2019-05-23T20:03:26.420Z,36.50
2019-05-23T20:06:23.384Z,36.50
2019-05-23T20:09:21.199Z,36.50
2019-05-23T20:12:17.706Z,36.50
2019-05-23T20:15:14.335Z,36.50
2019-05-23T20:18:11.541Z,36.50
2019-05-23T20:21:08.263Z,36.50
2019-05-23T20:24:04.295Z,36.50
2019-05-23T20:27:00.602Z,36.40
2019-05-23T20:29:57.217Z,36.40
2019-05-23T20:32:53.556Z,36.40
2019-05-23T20:35:50.153Z,36.40
2019-05-23T20:38:47.492Z,36.40
2019-05-23T20:41:43.693Z,36.40
2019-05-23T20:44:40.220Z,36.40
2019-05-23T20:47:38.153Z,36.40
2019-05-23T20:50:35.353Z,36.40
2019-05-23T20:53:31.604Z,36.40
2019-05-23T20:56:28.146Z,36.40
2019-05-23T20:59:24.823Z,36.30
2019-05-23T21:02:21.814Z,36.30
2019-05-23T21:05:18.568Z,36.30
2019-05-23T21:08:14.269Z,36.30
2019-05-23T21:11:11.799Z,36.20
2019-05-23T21:14:08.632Z,36.20
2019-05-23T21:17:05.575Z,36.20
2019-05-23T21:20:03.245Z,36.20
2019-05-23T21:23:00.651Z,36.20
2019-05-23T21:26:03.548Z,36.20
2019-05-23T21:28:59.780Z,36.20
2019-05-23T21:31:57.113Z,36.20
2019-05-23T21:34:52.720Z,36.10
2019-05-23T21:37:48.653Z,36.10
2019-05-23T21:40:51.009Z,36.10
2019-05-23T21:43:47.171Z,36.10
2019-05-23T21:46:42.919Z,36.10
2019-05-23T21:49:38.559Z,36.10
2019-05-23T21:52:34.811Z,36.10
2019-05-23T21:55:42.019Z,36.00
2019-05-23T21:58:39.853Z,36.00
2019-05-23T22:01:51.636Z,36.00
2019-05-23T22:04:55.334Z,36.00
2019-05-23T22:07:51.207Z,35.90
2019-05-23T22:10:46.658Z,35.90
2019-05-23T22:13:42.589Z,35.90
2019-05-23T22:16:38.925Z,35.90
2019-05-23T22:19:34.740Z,35.90
2019-05-23T22:22:31.311Z,35.80
2019-05-23T22:25:39.075Z,35.80
2019-05-23T22:28:35.613Z,35.80
2019-05-23T22:31:32.601Z,35.80
2019-05-23T22:34:54.586Z,35.80
2019-05-23T22:37:54.849Z,35.80
2019-05-23T22:40:53.891Z,35.80
2019-05-23T22:43:49.617Z,35.70
2019-05-23T22:46:45.695Z,35.70
2019-05-23T22:49:41.653Z,35.70
2019-05-23T22:52:38.476Z,35.70
2019-05-23T22:55:34.375Z,35.70
2019-05-23T22:58:31.283Z,35.60
2019-05-23T23:01:28.301Z,35.60
2019-05-23T23:04:24.641Z,35.60
2019-05-23T23:07:21.911Z,35.60
2019-05-23T23:10:19.327Z,35.60
2019-05-23T23:13:15.440Z,35.50
2019-05-23T23:16:14.404Z,35.50
2019-05-23T23:19:11.881Z,35.50
2019-05-23T23:22:07.883Z,35.50
2019-05-23T23:25:04.605Z,35.40
2019-05-23T23:28:01.086Z,35.40
2019-05-23T23:30:57.740Z,35.40
2019-05-23T23:33:54.456Z,35.40
2019-05-23T23:36:50.827Z,35.30
2019-05-23T23:39:46.952Z,35.30
2019-05-23T23:42:42.571Z,35.30
2019-05-23T23:45:53.942Z,35.30
2019-05-23T23:49:05.374Z,35.30
2019-05-23T23:52:18.603Z,35.30
2019-05-23T23:55:30.910Z,35.30
2019-05-23T23:58:24.557Z,35.30
